ENT4534 HEMA-EPWA
Flight info
| Callsign | ENT4534 |
|---|---|
| Flight time | 4h 23m |
| Altitude | 34000 |
| Route | ALKUN DCT MEMPO DCT LXR DCT GINDI/N0452F350 DCT LUBOS DCT ALPID/N0453F360 DCT RASDA DCT USEBE DCT KOMEZ DCT MAROS DCT PEDER DCT DASNI DCT TOMBI DCT DERYA DCT AYT DCT RAVGO DCT YASEN DCT MAKOL DCT SITNO/N0452F380 DCT WRN DCT BALIK DCT ARGES DCT KARIL DCT KENIN DCT LENOV/N0439F320 DCT ORTEB DCT KONZI DCT LOGDA |
| Aircraft | B738/M-DFGHIJ1LORVWXY/EB1 |
Departure
| Time | 2026-04-23 13:09 |
|---|---|
| Airport | Marsa Alam International Airport (HEMA) |
Arrival
| Time | 2026-04-23 17:32 |
|---|---|
| Airport | Warsaw Chopin Airport (EPWA) |
| Time | Latitude | Longitude | Altitude | Speed | Heading |
|---|---|---|---|---|---|
| 2026-04-23 12:56 | 25.55478 | 34.59098 | 243 ft | 0 kts | 59° |
| 2026-04-23 13:00 | 25.55475 | 34.59093 | 243 ft | 2 kts | 58° |
| 2026-04-23 13:00 | 25.55467 | 34.59079 | 244 ft | 2 kts | 60° |
| 2026-04-23 13:00 | 25.55459 | 34.59065 | 245 ft | 2 kts | 59° |
| 2026-04-23 13:00 | 25.55452 | 34.59050 | 245 ft | 2 kts | 60° |
| 2026-04-23 13:01 | 25.55444 | 34.59036 | 246 ft | 2 kts | 60° |
| 2026-04-23 13:01 | 25.55437 | 34.59022 | 247 ft | 2 kts | 88° |
| 2026-04-23 13:01 | 25.55443 | 34.59007 | 248 ft | 2 kts | 141° |
| 2026-04-23 13:01 | 25.55456 | 34.59000 | 248 ft | 2 kts | 152° |
| 2026-04-23 13:02 | 25.55463 | 34.58995 | 248 ft | 0 kts | 146° |
| 2026-04-23 13:04 | 25.55453 | 34.59002 | 248 ft | 3 kts | 149° |
| 2026-04-23 13:05 | 25.55419 | 34.59024 | 247 ft | 6 kts | 150° |
| 2026-04-23 13:05 | 25.55380 | 34.59049 | 247 ft | 6 kts | 150° |
| 2026-04-23 13:05 | 25.55329 | 34.59081 | 246 ft | 9 kts | 150° |
| 2026-04-23 13:05 | 25.55267 | 34.59121 | 245 ft | 10 kts | 150° |
| 2026-04-23 13:06 | 25.55153 | 34.59032 | 249 ft | 13 kts | 239° |
| 2026-04-23 13:06 | 25.55072 | 34.59015 | 252 ft | 15 kts | 151° |
| 2026-04-23 13:06 | 25.54949 | 34.59093 | 251 ft | 25 kts | 150° |
| 2026-04-23 13:07 | 25.54799 | 34.59188 | 250 ft | 24 kts | 150° |
| 2026-04-23 13:07 | 25.54677 | 34.59264 | 248 ft | 12 kts | 161° |
| 2026-04-23 13:07 | 25.54622 | 34.59235 | 250 ft | 7 kts | 240° |
| 2026-04-23 13:07 | 25.54604 | 34.59200 | 252 ft | 5 kts | 241° |
| 2026-04-23 13:08 | 25.54572 | 34.59130 | 255 ft | 14 kts | 257° |
| 2026-04-23 13:08 | 25.54652 | 34.59048 | 259 ft | 20 kts | 330° |
| 2026-04-23 13:08 | 25.54903 | 34.58889 | 262 ft | 70 kts | 329° |
| 2026-04-23 13:08 | 25.55490 | 34.58514 | 269 ft | 122 kts | 330° |
| 2026-04-23 13:09 | 25.56372 | 34.57952 | 295 ft | 162 kts | 330° |
| 2026-04-23 13:09 | 25.57350 | 34.57332 | 792 ft | 163 kts | 330° |
| 2026-04-23 13:09 | 25.58326 | 34.56703 | 1313 ft | 164 kts | 331° |
| 2026-04-23 13:09 | 25.59349 | 34.56040 | 1586 ft | 177 kts | 331° |
| 2026-04-23 13:10 | 25.60449 | 34.55328 | 1895 ft | 188 kts | 331° |
| 2026-04-23 13:10 | 25.61625 | 34.54568 | 2175 ft | 201 kts | 331° |
| 2026-04-23 13:10 | 25.62872 | 34.53759 | 2419 ft | 218 kts | 330° |
| 2026-04-23 13:10 | 25.64222 | 34.52881 | 2684 ft | 233 kts | 330° |
| 2026-04-23 13:11 | 25.65659 | 34.51948 | 3098 ft | 244 kts | 330° |
| 2026-04-23 13:11 | 25.67102 | 34.50861 | 3455 ft | 257 kts | 319° |
| 2026-04-23 13:11 | 25.68218 | 34.49278 | 3874 ft | 269 kts | 297° |
| 2026-04-23 13:11 | 25.68783 | 34.47293 | 4453 ft | 273 kts | 281° |
| 2026-04-23 13:12 | 25.68832 | 34.45177 | 5014 ft | 278 kts | 262° |
| 2026-04-23 13:12 | 25.68196 | 34.43170 | 5560 ft | 283 kts | 239° |
| 2026-04-23 13:12 | 25.67084 | 34.41372 | 6178 ft | 284 kts | 241° |
| 2026-04-23 13:12 | 25.66484 | 34.39311 | 6711 ft | 284 kts | 271° |
| 2026-04-23 13:13 | 25.66918 | 34.37217 | 7286 ft | 283 kts | 301° |
| 2026-04-23 13:13 | 25.68158 | 34.35562 | 7904 ft | 282 kts | 322° |
| 2026-04-23 13:13 | 25.69793 | 34.34361 | 8494 ft | 284 kts | 328° |
| 2026-04-23 13:13 | 25.71464 | 34.33179 | 9115 ft | 286 kts | 326° |
| 2026-04-23 13:14 | 25.73098 | 34.31937 | 9735 ft | 289 kts | 325° |
| 2026-04-23 13:14 | 25.74751 | 34.30632 | 10229 ft | 297 kts | 324° |
| 2026-04-23 13:14 | 25.76486 | 34.29251 | 10597 ft | 311 kts | 324° |
| 2026-04-23 13:14 | 25.78285 | 34.27820 | 10899 ft | 326 kts | 324° |
| 2026-04-23 13:15 | 25.80172 | 34.26323 | 11202 ft | 341 kts | 324° |
| 2026-04-23 13:15 | 25.82145 | 34.24762 | 11566 ft | 353 kts | 323° |
| 2026-04-23 13:15 | 25.84160 | 34.23170 | 12205 ft | 356 kts | 323° |
| 2026-04-23 13:15 | 25.86158 | 34.21590 | 12845 ft | 359 kts | 323° |
| 2026-04-23 13:16 | 25.88216 | 34.19963 | 13485 ft | 363 kts | 323° |
| 2026-04-23 13:16 | 25.90271 | 34.18337 | 14149 ft | 366 kts | 322° |
| 2026-04-23 13:16 | 25.92353 | 34.16689 | 14820 ft | 368 kts | 322° |
| 2026-04-23 13:16 | 25.94430 | 34.15042 | 15456 ft | 372 kts | 322° |
| 2026-04-23 13:17 | 25.96546 | 34.13364 | 16093 ft | 376 kts | 322° |
| 2026-04-23 13:17 | 25.98676 | 34.11674 | 16785 ft | 377 kts | 322° |
| 2026-04-23 13:17 | 26.00829 | 34.09965 | 17342 ft | 382 kts | 322° |
| 2026-04-23 13:17 | 26.03000 | 34.08241 | 17940 ft | 385 kts | 321° |
| 2026-04-23 13:18 | 26.05187 | 34.06505 | 18544 ft | 387 kts | 321° |
| 2026-04-23 13:18 | 26.07383 | 34.04761 | 19221 ft | 388 kts | 320° |
| 2026-04-23 13:18 | 26.09585 | 34.03011 | 19820 ft | 390 kts | 320° |
| 2026-04-23 13:18 | 26.11799 | 34.01250 | 20386 ft | 393 kts | 320° |
| 2026-04-23 13:19 | 26.14023 | 33.99480 | 20939 ft | 395 kts | 320° |
| 2026-04-23 13:19 | 26.16289 | 33.97674 | 21554 ft | 396 kts | 319° |
| 2026-04-23 13:19 | 26.18528 | 33.95891 | 22088 ft | 398 kts | 319° |
| 2026-04-23 13:19 | 26.20778 | 33.94098 | 22656 ft | 399 kts | 319° |
| 2026-04-23 13:20 | 26.23038 | 33.92295 | 23140 ft | 402 kts | 319° |
| 2026-04-23 13:20 | 26.25299 | 33.90490 | 23606 ft | 405 kts | 319° |
| 2026-04-23 13:20 | 26.27594 | 33.88658 | 24138 ft | 405 kts | 318° |
| 2026-04-23 13:20 | 26.29905 | 33.86813 | 24557 ft | 409 kts | 318° |
| 2026-04-23 13:21 | 26.32217 | 33.84965 | 24976 ft | 411 kts | 318° |
| 2026-04-23 13:21 | 26.34554 | 33.83098 | 25450 ft | 413 kts | 318° |
| 2026-04-23 13:21 | 26.36883 | 33.81236 | 25847 ft | 415 kts | 317° |
| 2026-04-23 13:21 | 26.39252 | 33.79341 | 26278 ft | 417 kts | 317° |
| 2026-04-23 13:22 | 26.41613 | 33.77448 | 26553 ft | 422 kts | 317° |
| 2026-04-23 13:22 | 26.43980 | 33.75552 | 27019 ft | 422 kts | 317° |
| 2026-04-23 13:22 | 26.46363 | 33.73646 | 27464 ft | 423 kts | 317° |
| 2026-04-23 13:22 | 26.48771 | 33.71715 | 27821 ft | 425 kts | 317° |
| 2026-04-23 13:23 | 26.51168 | 33.69792 | 28074 ft | 430 kts | 317° |
| 2026-04-23 13:23 | 26.53616 | 33.67825 | 28455 ft | 431 kts | 317° |
| 2026-04-23 13:23 | 26.56060 | 33.65863 | 28834 ft | 432 kts | 317° |
| 2026-04-23 13:23 | 26.58497 | 33.63905 | 29177 ft | 434 kts | 316° |
| 2026-04-23 13:24 | 26.60927 | 33.61953 | 29638 ft | 432 kts | 316° |
| 2026-04-23 13:24 | 26.63368 | 33.59996 | 30220 ft | 428 kts | 316° |
| 2026-04-23 13:24 | 26.65811 | 33.58037 | 30632 ft | 427 kts | 316° |
| 2026-04-23 13:24 | 26.68217 | 33.56100 | 30992 ft | 427 kts | 316° |
| 2026-04-23 13:25 | 26.70652 | 33.54139 | 31332 ft | 428 kts | 315° |
| 2026-04-23 13:25 | 26.73081 | 33.52179 | 31664 ft | 428 kts | 315° |
| 2026-04-23 13:25 | 26.75489 | 33.50238 | 32050 ft | 427 kts | 314° |
| 2026-04-23 13:25 | 26.77894 | 33.48299 | 32446 ft | 425 kts | 314° |
| 2026-04-23 13:26 | 26.80291 | 33.46366 | 32812 ft | 423 kts | 314° |
| 2026-04-23 13:26 | 26.82676 | 33.44442 | 33195 ft | 421 kts | 314° |
| 2026-04-23 13:26 | 26.85031 | 33.42545 | 33699 ft | 416 kts | 314° |
| 2026-04-23 13:26 | 26.87390 | 33.40638 | 33931 ft | 417 kts | 313° |
| 2026-04-23 13:27 | 26.89754 | 33.38716 | 33935 ft | 422 kts | 313° |
| 2026-04-23 13:27 | 26.94561 | 33.34800 | 33943 ft | 430 kts | 313° |
| 2026-04-23 13:28 | 26.99416 | 33.30859 | 33945 ft | 431 kts | 313° |
| 2026-04-23 13:28 | 27.04281 | 33.26917 | 33942 ft | 431 kts | 313° |
| 2026-04-23 13:29 | 27.09155 | 33.22969 | 33927 ft | 433 kts | 313° |
| 2026-04-23 13:29 | 27.14041 | 33.18993 | 33905 ft | 434 kts | 313° |
| 2026-04-23 13:30 | 27.18918 | 33.15024 | 33902 ft | 433 kts | 313° |
| 2026-04-23 13:30 | 27.23821 | 33.11025 | 33905 ft | 436 kts | 313° |
| 2026-04-23 13:31 | 27.28726 | 33.07023 | 33904 ft | 433 kts | 314° |
| 2026-04-23 13:31 | 27.33587 | 33.03057 | 33910 ft | 435 kts | 313° |
| 2026-04-23 13:32 | 27.38484 | 32.99046 | 33921 ft | 435 kts | 313° |
| 2026-04-23 13:32 | 27.43397 | 32.95029 | 33918 ft | 434 kts | 314° |
| 2026-04-23 13:33 | 27.48277 | 32.91031 | 33917 ft | 435 kts | 313° |
| 2026-04-23 13:33 | 27.53168 | 32.87017 | 33908 ft | 436 kts | 314° |
| 2026-04-23 13:34 | 27.58066 | 32.82993 | 33903 ft | 435 kts | 314° |
| 2026-04-23 13:34 | 27.62968 | 32.78964 | 33898 ft | 435 kts | 314° |
| 2026-04-23 13:35 | 27.67867 | 32.74931 | 33908 ft | 435 kts | 314° |
| 2026-04-23 13:35 | 27.72739 | 32.70913 | 33912 ft | 437 kts | 315° |
| 2026-04-23 13:36 | 27.77641 | 32.66870 | 33916 ft | 436 kts | 314° |
| 2026-04-23 13:36 | 27.82544 | 32.62820 | 33928 ft | 438 kts | 315° |
| 2026-04-23 13:37 | 27.87481 | 32.58736 | 33933 ft | 439 kts | 315° |
| 2026-04-23 13:37 | 27.92373 | 32.54689 | 33943 ft | 438 kts | 315° |
| 2026-04-23 13:38 | 27.97316 | 32.50590 | 33944 ft | 439 kts | 315° |
| 2026-04-23 13:38 | 28.02306 | 32.46536 | 33962 ft | 442 kts | 316° |
| 2026-04-23 13:39 | 28.07282 | 32.42454 | 33945 ft | 440 kts | 315° |
| 2026-04-23 13:39 | 28.12178 | 32.38334 | 33935 ft | 438 kts | 315° |
| 2026-04-23 13:40 | 28.17112 | 32.34173 | 33924 ft | 441 kts | 315° |
| 2026-04-23 13:40 | 28.22058 | 32.30025 | 33933 ft | 441 kts | 316° |
| 2026-04-23 13:41 | 28.27017 | 32.25874 | 33931 ft | 441 kts | 315° |
| 2026-04-23 13:41 | 28.31932 | 32.21761 | 33935 ft | 442 kts | 316° |
| 2026-04-23 13:42 | 28.36888 | 32.17612 | 33937 ft | 441 kts | 316° |
| 2026-04-23 13:42 | 28.41821 | 32.13480 | 33939 ft | 444 kts | 316° |
| 2026-04-23 13:43 | 28.46792 | 32.09307 | 33934 ft | 445 kts | 317° |
| 2026-04-23 13:43 | 28.51781 | 32.05120 | 33950 ft | 445 kts | 317° |
| 2026-04-23 13:44 | 28.56727 | 32.00966 | 33944 ft | 443 kts | 317° |
| 2026-04-23 13:44 | 28.61710 | 31.96771 | 33930 ft | 445 kts | 317° |
| 2026-04-23 13:45 | 28.66696 | 31.92570 | 33935 ft | 446 kts | 318° |
| 2026-04-23 13:45 | 28.71646 | 31.88393 | 33916 ft | 445 kts | 318° |
| 2026-04-23 13:46 | 28.76653 | 31.84161 | 33913 ft | 446 kts | 318° |
| 2026-04-23 13:46 | 28.81614 | 31.79964 | 33913 ft | 447 kts | 319° |
| 2026-04-23 13:47 | 28.86622 | 31.75724 | 33902 ft | 447 kts | 319° |
| 2026-04-23 13:47 | 28.91615 | 31.71494 | 33892 ft | 447 kts | 319° |
| 2026-04-23 13:48 | 28.96590 | 31.67269 | 33907 ft | 449 kts | 319° |
| 2026-04-23 13:48 | 29.01594 | 31.63014 | 33892 ft | 448 kts | 319° |
| 2026-04-23 13:49 | 29.06585 | 31.58769 | 33900 ft | 449 kts | 319° |
| 2026-04-23 13:49 | 29.11577 | 31.54517 | 33907 ft | 448 kts | 319° |
| 2026-04-23 13:50 | 29.16592 | 31.50239 | 33903 ft | 447 kts | 319° |
| 2026-04-23 13:50 | 29.21577 | 31.45980 | 33904 ft | 447 kts | 319° |
| 2026-04-23 13:51 | 29.26541 | 31.41736 | 33900 ft | 447 kts | 319° |
| 2026-04-23 13:51 | 29.31521 | 31.37474 | 33891 ft | 446 kts | 319° |
| 2026-04-23 13:52 | 29.36536 | 31.33279 | 33882 ft | 447 kts | 322° |
| 2026-04-23 13:52 | 29.42224 | 31.30308 | 33876 ft | 460 kts | 342° |
| 2026-04-23 13:53 | 29.48635 | 31.29244 | 33868 ft | 465 kts | 350° |
| 2026-04-23 13:53 | 29.55077 | 31.28675 | 33868 ft | 465 kts | 351° |
| 2026-04-23 13:54 | 29.61557 | 31.28172 | 33861 ft | 466 kts | 351° |
| 2026-04-23 13:54 | 29.68027 | 31.27644 | 33864 ft | 465 kts | 351° |
| 2026-04-23 13:55 | 29.74475 | 31.27082 | 33861 ft | 464 kts | 351° |
| 2026-04-23 13:55 | 29.80889 | 31.26504 | 33866 ft | 464 kts | 351° |
| 2026-04-23 13:56 | 29.87365 | 31.25908 | 33869 ft | 464 kts | 350° |
| 2026-04-23 13:56 | 29.93777 | 31.25317 | 33871 ft | 464 kts | 350° |
| 2026-04-23 13:57 | 30.00218 | 31.24719 | 33879 ft | 463 kts | 350° |
| 2026-04-23 13:57 | 30.06692 | 31.24116 | 33879 ft | 463 kts | 350° |
| 2026-04-23 13:58 | 30.13145 | 31.23516 | 33889 ft | 463 kts | 350° |
| 2026-04-23 13:58 | 30.19561 | 31.22918 | 33884 ft | 463 kts | 350° |
| 2026-04-23 13:59 | 30.25969 | 31.22320 | 33875 ft | 463 kts | 350° |
| 2026-04-23 13:59 | 30.32402 | 31.21719 | 33869 ft | 463 kts | 350° |
| 2026-04-23 14:00 | 30.37767 | 31.21216 | 33876 ft | 463 kts | 350° |
| 2026-04-23 14:00 | 30.45266 | 31.20513 | 33873 ft | 462 kts | 350° |
| 2026-04-23 14:01 | 30.51687 | 31.19910 | 33874 ft | 462 kts | 350° |
| 2026-04-23 14:01 | 30.58077 | 31.19311 | 33875 ft | 462 kts | 350° |
| 2026-04-23 14:02 | 30.64485 | 31.18708 | 33877 ft | 463 kts | 350° |
| 2026-04-23 14:02 | 30.70914 | 31.18104 | 33876 ft | 462 kts | 350° |
| 2026-04-23 14:03 | 30.77324 | 31.17499 | 33884 ft | 462 kts | 350° |
| 2026-04-23 14:03 | 30.83740 | 31.16894 | 33884 ft | 461 kts | 350° |
| 2026-04-23 14:04 | 30.90151 | 31.16288 | 33888 ft | 462 kts | 350° |
| 2026-04-23 14:04 | 30.96573 | 31.15678 | 33888 ft | 462 kts | 350° |
| 2026-04-23 14:05 | 31.02978 | 31.15072 | 33892 ft | 462 kts | 350° |
| 2026-04-23 14:05 | 31.09359 | 31.14466 | 33891 ft | 461 kts | 350° |
| 2026-04-23 14:06 | 31.15773 | 31.13855 | 33898 ft | 461 kts | 349° |
| 2026-04-23 14:06 | 31.22188 | 31.13243 | 33895 ft | 462 kts | 349° |
| 2026-04-23 14:07 | 31.28594 | 31.12633 | 33899 ft | 463 kts | 350° |
| 2026-04-23 14:07 | 31.38224 | 31.11713 | 33908 ft | 462 kts | 349° |
| 2026-04-23 14:08 | 31.44620 | 31.11104 | 33905 ft | 461 kts | 349° |
| 2026-04-23 14:08 | 31.50984 | 31.10498 | 33902 ft | 454 kts | 349° |
| 2026-04-23 14:09 | 31.57245 | 31.09904 | 33913 ft | 448 kts | 349° |
| 2026-04-23 14:09 | 31.63497 | 31.09298 | 33912 ft | 451 kts | 349° |
| 2026-04-23 14:10 | 31.69760 | 31.08691 | 33915 ft | 451 kts | 349° |
| 2026-04-23 14:10 | 31.76028 | 31.08085 | 33918 ft | 451 kts | 349° |
| 2026-04-23 14:11 | 31.82322 | 31.07479 | 34355 ft | 450 kts | 349° |
| 2026-04-23 14:11 | 31.85421 | 31.07183 | 34783 ft | 447 kts | 349° |
| 2026-04-23 14:11 | 31.88540 | 31.06884 | 35087 ft | 447 kts | 349° |
| 2026-04-23 14:12 | 31.91619 | 31.06586 | 35380 ft | 446 kts | 349° |
| 2026-04-23 14:12 | 31.94694 | 31.06290 | 35717 ft | 444 kts | 349° |
| 2026-04-23 14:12 | 31.97785 | 31.05989 | 35898 ft | 445 kts | 349° |
| 2026-04-23 14:12 | 32.00917 | 31.05681 | 35926 ft | 448 kts | 349° |
| 2026-04-23 14:13 | 32.07098 | 31.05076 | 35920 ft | 447 kts | 349° |
| 2026-04-23 14:13 | 32.13299 | 31.04474 | 35926 ft | 445 kts | 349° |
| 2026-04-23 14:14 | 32.19483 | 31.03875 | 35931 ft | 446 kts | 349° |
| 2026-04-23 14:14 | 32.25660 | 31.03274 | 35931 ft | 444 kts | 349° |
| 2026-04-23 14:15 | 32.31847 | 31.02672 | 35927 ft | 443 kts | 349° |
| 2026-04-23 14:15 | 32.37983 | 31.02073 | 35930 ft | 445 kts | 349° |
| 2026-04-23 14:16 | 32.44147 | 31.01470 | 35926 ft | 443 kts | 348° |
| 2026-04-23 14:16 | 32.50326 | 31.00864 | 35924 ft | 444 kts | 348° |
| 2026-04-23 14:17 | 32.56494 | 31.00258 | 35925 ft | 444 kts | 349° |
| 2026-04-23 14:17 | 32.62669 | 30.99652 | 35929 ft | 445 kts | 349° |
| 2026-04-23 14:18 | 32.68841 | 30.99046 | 35927 ft | 444 kts | 349° |
| 2026-04-23 14:18 | 32.74981 | 30.98440 | 35930 ft | 445 kts | 349° |
| 2026-04-23 14:19 | 32.81170 | 30.97830 | 35927 ft | 443 kts | 349° |
| 2026-04-23 14:19 | 32.87318 | 30.97223 | 35926 ft | 443 kts | 349° |
| 2026-04-23 14:20 | 32.93441 | 30.96619 | 35927 ft | 443 kts | 349° |
| 2026-04-23 14:20 | 32.99605 | 30.96011 | 35925 ft | 443 kts | 349° |
| 2026-04-23 14:21 | 33.05736 | 30.95405 | 35926 ft | 443 kts | 349° |
| 2026-04-23 14:21 | 33.11909 | 30.94817 | 35926 ft | 444 kts | 350° |
| 2026-04-23 14:22 | 33.18094 | 30.94516 | 35926 ft | 446 kts | 352° |
| 2026-04-23 14:22 | 33.24313 | 30.94339 | 35931 ft | 446 kts | 352° |
| 2026-04-23 14:23 | 33.30508 | 30.94159 | 35925 ft | 446 kts | 352° |
| 2026-04-23 14:23 | 33.36697 | 30.93955 | 35925 ft | 445 kts | 352° |
| 2026-04-23 14:24 | 33.42909 | 30.93734 | 35929 ft | 445 kts | 352° |
| 2026-04-23 14:24 | 33.49084 | 30.93505 | 35920 ft | 445 kts | 352° |
| 2026-04-23 14:25 | 33.55263 | 30.93274 | 35918 ft | 444 kts | 351° |
| 2026-04-23 14:25 | 33.61448 | 30.93039 | 35918 ft | 444 kts | 351° |
| 2026-04-23 14:26 | 33.67621 | 30.92801 | 35920 ft | 445 kts | 352° |
| 2026-04-23 14:26 | 33.73808 | 30.92567 | 35915 ft | 444 kts | 351° |
| 2026-04-23 14:27 | 33.79995 | 30.92334 | 35922 ft | 444 kts | 351° |
| 2026-04-23 14:27 | 33.86180 | 30.92099 | 35915 ft | 442 kts | 351° |
| 2026-04-23 14:28 | 33.92309 | 30.91866 | 35930 ft | 443 kts | 351° |
| 2026-04-23 14:28 | 33.98492 | 30.91608 | 35930 ft | 443 kts | 351° |
| 2026-04-23 14:29 | 34.04606 | 30.91276 | 35928 ft | 442 kts | 350° |
| 2026-04-23 14:29 | 34.10709 | 30.90925 | 35919 ft | 440 kts | 350° |
| 2026-04-23 14:30 | 34.16885 | 30.90564 | 35927 ft | 445 kts | 350° |
| 2026-04-23 14:30 | 34.23080 | 30.90211 | 35924 ft | 443 kts | 350° |
| 2026-04-23 14:31 | 34.29230 | 30.89884 | 35928 ft | 443 kts | 351° |
| 2026-04-23 14:31 | 34.35381 | 30.89586 | 35922 ft | 442 kts | 351° |
| 2026-04-23 14:32 | 34.41530 | 30.89293 | 35928 ft | 442 kts | 351° |
| 2026-04-23 14:32 | 34.47696 | 30.88994 | 35928 ft | 443 kts | 351° |
| 2026-04-23 14:33 | 34.53850 | 30.88693 | 35922 ft | 443 kts | 350° |
| 2026-04-23 14:33 | 34.59987 | 30.88392 | 35929 ft | 443 kts | 350° |
| 2026-04-23 14:34 | 34.66135 | 30.88123 | 35929 ft | 442 kts | 351° |
| 2026-04-23 14:34 | 34.72288 | 30.87924 | 35920 ft | 442 kts | 351° |
| 2026-04-23 14:35 | 34.78415 | 30.87736 | 35912 ft | 441 kts | 351° |
| 2026-04-23 14:35 | 34.84589 | 30.87541 | 35917 ft | 443 kts | 351° |
| 2026-04-23 14:36 | 34.90711 | 30.87345 | 35916 ft | 441 kts | 351° |
| 2026-04-23 14:36 | 34.96880 | 30.87140 | 35903 ft | 443 kts | 351° |
| 2026-04-23 14:37 | 35.03018 | 30.86937 | 35906 ft | 441 kts | 351° |
| 2026-04-23 14:37 | 35.09142 | 30.86732 | 35906 ft | 442 kts | 351° |
| 2026-04-23 14:38 | 35.15281 | 30.86530 | 35908 ft | 441 kts | 351° |
| 2026-04-23 14:38 | 35.21459 | 30.86323 | 35905 ft | 442 kts | 350° |
| 2026-04-23 14:39 | 35.27583 | 30.86118 | 35905 ft | 442 kts | 350° |
| 2026-04-23 14:39 | 35.33738 | 30.85910 | 35904 ft | 443 kts | 351° |
| 2026-04-23 14:40 | 35.39871 | 30.85705 | 35905 ft | 443 kts | 351° |
| 2026-04-23 14:40 | 35.46027 | 30.85500 | 35906 ft | 443 kts | 350° |
| 2026-04-23 14:41 | 35.52198 | 30.85291 | 35903 ft | 443 kts | 350° |
| 2026-04-23 14:41 | 35.58348 | 30.85085 | 35901 ft | 442 kts | 350° |
| 2026-04-23 14:42 | 35.64512 | 30.84853 | 35902 ft | 443 kts | 349° |
| 2026-04-23 14:42 | 35.70652 | 30.84499 | 35911 ft | 443 kts | 349° |
| 2026-04-23 14:43 | 35.76800 | 30.84101 | 35902 ft | 441 kts | 348° |
| 2026-04-23 14:43 | 35.82926 | 30.83711 | 35901 ft | 442 kts | 349° |
| 2026-04-23 14:44 | 35.89066 | 30.83327 | 35901 ft | 444 kts | 348° |
| 2026-04-23 14:44 | 35.95266 | 30.82950 | 35897 ft | 443 kts | 349° |
| 2026-04-23 14:45 | 36.01398 | 30.82579 | 35885 ft | 444 kts | 348° |
| 2026-04-23 14:45 | 36.07603 | 30.82238 | 35881 ft | 444 kts | 349° |
| 2026-04-23 14:46 | 36.13800 | 30.82026 | 35884 ft | 444 kts | 350° |
| 2026-04-23 14:46 | 36.19939 | 30.81848 | 35882 ft | 445 kts | 350° |
| 2026-04-23 14:47 | 36.26141 | 30.81660 | 35881 ft | 446 kts | 350° |
| 2026-04-23 14:47 | 36.32359 | 30.81462 | 35875 ft | 444 kts | 350° |
| 2026-04-23 14:48 | 36.38547 | 30.81260 | 35881 ft | 448 kts | 350° |
| 2026-04-23 14:48 | 36.44768 | 30.81055 | 35871 ft | 444 kts | 350° |
| 2026-04-23 14:49 | 36.50924 | 30.80846 | 35882 ft | 444 kts | 350° |
| 2026-04-23 14:49 | 36.57114 | 30.80633 | 35881 ft | 444 kts | 350° |
| 2026-04-23 14:50 | 36.63284 | 30.80419 | 35874 ft | 445 kts | 350° |
| 2026-04-23 14:50 | 36.69449 | 30.80204 | 35877 ft | 444 kts | 350° |
| 2026-04-23 14:51 | 36.75634 | 30.79988 | 35878 ft | 446 kts | 350° |
| 2026-04-23 14:51 | 36.81823 | 30.79771 | 35880 ft | 445 kts | 350° |
| 2026-04-23 14:52 | 36.88008 | 30.79559 | 35883 ft | 444 kts | 350° |
| 2026-04-23 14:52 | 36.94144 | 30.79312 | 35882 ft | 442 kts | 349° |
| 2026-04-23 14:53 | 37.00285 | 30.78723 | 35883 ft | 439 kts | 346° |
| 2026-04-23 14:53 | 37.06322 | 30.78002 | 35882 ft | 438 kts | 346° |
| 2026-04-23 14:54 | 37.12411 | 30.77277 | 35892 ft | 438 kts | 346° |
| 2026-04-23 14:54 | 37.18498 | 30.76579 | 35896 ft | 439 kts | 347° |
| 2026-04-23 14:55 | 37.24580 | 30.75899 | 35891 ft | 441 kts | 347° |
| 2026-04-23 14:55 | 37.30709 | 30.75226 | 35901 ft | 441 kts | 347° |
| 2026-04-23 14:56 | 37.36808 | 30.74558 | 35903 ft | 440 kts | 347° |
| 2026-04-23 14:56 | 37.42921 | 30.73894 | 35905 ft | 439 kts | 347° |
| 2026-04-23 14:57 | 37.49046 | 30.73221 | 35906 ft | 440 kts | 347° |
| 2026-04-23 14:57 | 37.55139 | 30.72554 | 35915 ft | 441 kts | 347° |
| 2026-04-23 14:58 | 37.61254 | 30.71877 | 35909 ft | 442 kts | 347° |
| 2026-04-23 14:58 | 37.67372 | 30.71201 | 35911 ft | 443 kts | 347° |
| 2026-04-23 14:59 | 37.73503 | 30.70527 | 35901 ft | 441 kts | 347° |
| 2026-04-23 14:59 | 37.79639 | 30.69851 | 35897 ft | 443 kts | 347° |
| 2026-04-23 15:00 | 37.85740 | 30.69183 | 35897 ft | 440 kts | 347° |
| 2026-04-23 15:00 | 37.91822 | 30.68513 | 35902 ft | 442 kts | 346° |
| 2026-04-23 15:01 | 37.97938 | 30.67836 | 35902 ft | 440 kts | 346° |
| 2026-04-23 15:01 | 38.04063 | 30.67158 | 35899 ft | 442 kts | 347° |
| 2026-04-23 15:02 | 38.10204 | 30.66467 | 35904 ft | 444 kts | 346° |
| 2026-04-23 15:02 | 38.16356 | 30.65786 | 35901 ft | 440 kts | 347° |
| 2026-04-23 15:03 | 38.22445 | 30.65102 | 35910 ft | 444 kts | 346° |
| 2026-04-23 15:03 | 38.28596 | 30.64413 | 35916 ft | 443 kts | 346° |
| 2026-04-23 15:04 | 38.34744 | 30.63717 | 35923 ft | 444 kts | 346° |
| 2026-04-23 15:04 | 38.40865 | 30.63030 | 35914 ft | 444 kts | 346° |
| 2026-04-23 15:05 | 38.47039 | 30.62333 | 35919 ft | 446 kts | 347° |
| 2026-04-23 15:05 | 38.53212 | 30.61640 | 35919 ft | 445 kts | 347° |
| 2026-04-23 15:06 | 38.59386 | 30.60948 | 35926 ft | 445 kts | 347° |
| 2026-04-23 15:06 | 38.65554 | 30.60252 | 35928 ft | 445 kts | 347° |
| 2026-04-23 15:07 | 38.71692 | 30.59562 | 35928 ft | 445 kts | 347° |
| 2026-04-23 15:07 | 38.77888 | 30.58859 | 35924 ft | 447 kts | 347° |
| 2026-04-23 15:08 | 38.84058 | 30.58162 | 35927 ft | 443 kts | 347° |
| 2026-04-23 15:09 | 38.93307 | 30.57107 | 35930 ft | 447 kts | 347° |
| 2026-04-23 15:09 | 38.99471 | 30.56407 | 35930 ft | 445 kts | 347° |
| 2026-04-23 15:10 | 39.04626 | 30.55822 | 35935 ft | 445 kts | 347° |
| 2026-04-23 15:10 | 39.11797 | 30.55002 | 35929 ft | 444 kts | 347° |
| 2026-04-23 15:11 | 39.17939 | 30.54297 | 35928 ft | 445 kts | 347° |
| 2026-04-23 15:11 | 39.24113 | 30.53590 | 35927 ft | 445 kts | 347° |
| 2026-04-23 15:12 | 39.30274 | 30.52881 | 35933 ft | 445 kts | 347° |
| 2026-04-23 15:12 | 39.36462 | 30.52168 | 35911 ft | 445 kts | 347° |
| 2026-04-23 15:13 | 39.42633 | 30.51454 | 35914 ft | 444 kts | 347° |
| 2026-04-23 15:13 | 39.48754 | 30.50746 | 35928 ft | 443 kts | 347° |
| 2026-04-23 15:14 | 39.54822 | 30.49591 | 35921 ft | 435 kts | 338° |
| 2026-04-23 15:14 | 39.60428 | 30.47022 | 35940 ft | 426 kts | 329° |
| 2026-04-23 15:15 | 39.65806 | 30.43862 | 35938 ft | 423 kts | 328° |
| 2026-04-23 15:15 | 39.71131 | 30.40634 | 35948 ft | 424 kts | 328° |
| 2026-04-23 15:16 | 39.76496 | 30.37420 | 35963 ft | 426 kts | 328° |
| 2026-04-23 15:16 | 39.81905 | 30.34227 | 36286 ft | 425 kts | 328° |
| 2026-04-23 15:16 | 39.84598 | 30.32643 | 36071 ft | 426 kts | 328° |
| 2026-04-23 15:17 | 39.87270 | 30.31075 | 35955 ft | 420 kts | 328° |
| 2026-04-23 15:17 | 39.92554 | 30.27973 | 35959 ft | 421 kts | 328° |
| 2026-04-23 15:18 | 39.97929 | 30.24807 | 35954 ft | 422 kts | 328° |
| 2026-04-23 15:18 | 40.03247 | 30.21675 | 35949 ft | 422 kts | 328° |
| 2026-04-23 15:19 | 40.08612 | 30.18508 | 35957 ft | 424 kts | 328° |
| 2026-04-23 15:19 | 40.13993 | 30.15330 | 35977 ft | 423 kts | 328° |
| 2026-04-23 15:20 | 40.19334 | 30.12167 | 35975 ft | 425 kts | 329° |
| 2026-04-23 15:20 | 40.24733 | 30.08968 | 35978 ft | 422 kts | 329° |
| 2026-04-23 15:21 | 40.30077 | 30.05791 | 35979 ft | 424 kts | 329° |
| 2026-04-23 15:21 | 40.35452 | 30.02593 | 35969 ft | 424 kts | 329° |
| 2026-04-23 15:22 | 40.40815 | 29.99396 | 35985 ft | 425 kts | 330° |
| 2026-04-23 15:22 | 40.46186 | 29.96188 | 35971 ft | 424 kts | 330° |
| 2026-04-23 15:23 | 40.51544 | 29.92983 | 35965 ft | 424 kts | 330° |
| 2026-04-23 15:23 | 40.56917 | 29.89766 | 35982 ft | 425 kts | 330° |
| 2026-04-23 15:24 | 40.62303 | 29.86532 | 35985 ft | 426 kts | 330° |
| 2026-04-23 15:24 | 40.67680 | 29.83298 | 35985 ft | 426 kts | 330° |
| 2026-04-23 15:25 | 40.73106 | 29.80027 | 36000 ft | 428 kts | 330° |
| 2026-04-23 15:25 | 40.78482 | 29.76783 | 36003 ft | 427 kts | 331° |
| 2026-04-23 15:26 | 40.83881 | 29.73522 | 35993 ft | 427 kts | 331° |
| 2026-04-23 15:26 | 40.89270 | 29.70259 | 35999 ft | 428 kts | 331° |
| 2026-04-23 15:27 | 40.94674 | 29.66980 | 35989 ft | 427 kts | 331° |
| 2026-04-23 15:27 | 41.00087 | 29.63690 | 35995 ft | 429 kts | 331° |
| 2026-04-23 15:28 | 41.05492 | 29.60399 | 35997 ft | 428 kts | 332° |
| 2026-04-23 15:28 | 41.10867 | 29.57120 | 35997 ft | 426 kts | 332° |
| 2026-04-23 15:29 | 41.16225 | 29.53843 | 36000 ft | 426 kts | 332° |
| 2026-04-23 15:29 | 41.21698 | 29.50861 | 35999 ft | 427 kts | 338° |
| 2026-04-23 15:30 | 41.27412 | 29.48551 | 36003 ft | 430 kts | 341° |
| 2026-04-23 15:30 | 41.33172 | 29.46433 | 36001 ft | 428 kts | 342° |
| 2026-04-23 15:31 | 41.38902 | 29.44322 | 35996 ft | 428 kts | 342° |
| 2026-04-23 15:31 | 41.44616 | 29.42179 | 35992 ft | 426 kts | 342° |
| 2026-04-23 15:32 | 41.50283 | 29.40032 | 35995 ft | 426 kts | 342° |
| 2026-04-23 15:32 | 41.55970 | 29.37866 | 36000 ft | 426 kts | 342° |
| 2026-04-23 15:33 | 41.61663 | 29.35685 | 35996 ft | 427 kts | 342° |
| 2026-04-23 15:33 | 41.67376 | 29.33492 | 35993 ft | 425 kts | 342° |
| 2026-04-23 15:34 | 41.73032 | 29.31319 | 35989 ft | 425 kts | 342° |
| 2026-04-23 15:34 | 41.78730 | 29.29125 | 35989 ft | 426 kts | 342° |
| 2026-04-23 15:35 | 41.84410 | 29.26933 | 35991 ft | 425 kts | 342° |
| 2026-04-23 15:35 | 41.90089 | 29.24740 | 35997 ft | 425 kts | 343° |
| 2026-04-23 15:36 | 41.95771 | 29.22538 | 35993 ft | 427 kts | 343° |
| 2026-04-23 15:36 | 42.01496 | 29.20318 | 35986 ft | 427 kts | 343° |
| 2026-04-23 15:37 | 42.07161 | 29.18118 | 35989 ft | 426 kts | 343° |
| 2026-04-23 15:37 | 42.12872 | 29.15860 | 35985 ft | 425 kts | 341° |
| 2026-04-23 15:38 | 42.18227 | 29.12579 | 35985 ft | 425 kts | 326° |
| 2026-04-23 15:38 | 42.22814 | 29.07615 | 35987 ft | 427 kts | 319° |
| 2026-04-23 15:39 | 42.27187 | 29.02178 | 35979 ft | 426 kts | 317° |
| 2026-04-23 15:39 | 42.31492 | 28.96743 | 35969 ft | 426 kts | 318° |
| 2026-04-23 15:40 | 42.35840 | 28.91309 | 36087 ft | 423 kts | 318° |
| 2026-04-23 15:40 | 42.38015 | 28.88607 | 35977 ft | 428 kts | 319° |
| 2026-04-23 15:40 | 42.40196 | 28.85904 | 35782 ft | 422 kts | 319° |
| 2026-04-23 15:40 | 42.42339 | 28.83251 | 35940 ft | 421 kts | 319° |
| 2026-04-23 15:41 | 42.44502 | 28.80576 | 35974 ft | 424 kts | 319° |
| 2026-04-23 15:41 | 42.48906 | 28.75130 | 35964 ft | 429 kts | 319° |
| 2026-04-23 15:42 | 42.53276 | 28.69717 | 35979 ft | 428 kts | 319° |
| 2026-04-23 15:42 | 42.57655 | 28.64280 | 35973 ft | 428 kts | 319° |
| 2026-04-23 15:43 | 42.62045 | 28.58818 | 35973 ft | 428 kts | 319° |
| 2026-04-23 15:43 | 42.66428 | 28.53352 | 35961 ft | 427 kts | 319° |
| 2026-04-23 15:44 | 42.70795 | 28.47899 | 35961 ft | 428 kts | 320° |
| 2026-04-23 15:44 | 42.75178 | 28.42411 | 35949 ft | 427 kts | 319° |
| 2026-04-23 15:45 | 42.79534 | 28.36948 | 35959 ft | 428 kts | 320° |
| 2026-04-23 15:45 | 42.83922 | 28.31432 | 35948 ft | 428 kts | 319° |
| 2026-04-23 15:46 | 42.88287 | 28.25938 | 35951 ft | 428 kts | 319° |
| 2026-04-23 15:46 | 42.92633 | 28.20454 | 35929 ft | 428 kts | 320° |
| 2026-04-23 15:47 | 42.96986 | 28.14953 | 35937 ft | 429 kts | 320° |
| 2026-04-23 15:47 | 43.01353 | 28.09425 | 35930 ft | 429 kts | 320° |
| 2026-04-23 15:48 | 43.05727 | 28.03874 | 35907 ft | 428 kts | 320° |
| 2026-04-23 15:48 | 43.10084 | 27.98334 | 35922 ft | 428 kts | 320° |
| 2026-04-23 15:49 | 43.14437 | 27.92789 | 36054 ft | 431 kts | 320° |
| 2026-04-23 15:49 | 43.16618 | 27.90006 | 36345 ft | 429 kts | 320° |
| 2026-04-23 15:49 | 43.18807 | 27.87207 | 36653 ft | 428 kts | 320° |
| 2026-04-23 15:49 | 43.20961 | 27.84451 | 36908 ft | 427 kts | 320° |
| 2026-04-23 15:50 | 43.23140 | 27.81662 | 37149 ft | 427 kts | 320° |
| 2026-04-23 15:50 | 43.25339 | 27.78949 | 37349 ft | 427 kts | 321° |
| 2026-04-23 15:50 | 43.27585 | 27.76322 | 37601 ft | 425 kts | 322° |
| 2026-04-23 15:50 | 43.29841 | 27.73747 | 37871 ft | 423 kts | 323° |
| 2026-04-23 15:51 | 43.32120 | 27.71166 | 37921 ft | 425 kts | 323° |
| 2026-04-23 15:51 | 43.36658 | 27.66011 | 37924 ft | 423 kts | 323° |
| 2026-04-23 15:52 | 43.41160 | 27.60843 | 37921 ft | 423 kts | 323° |
| 2026-04-23 15:52 | 43.45654 | 27.55652 | 37922 ft | 423 kts | 323° |
| 2026-04-23 15:53 | 43.50140 | 27.50448 | 37922 ft | 422 kts | 322° |
| 2026-04-23 15:53 | 43.54591 | 27.45265 | 37927 ft | 421 kts | 323° |
| 2026-04-23 15:54 | 43.59069 | 27.40044 | 37916 ft | 421 kts | 323° |
| 2026-04-23 15:54 | 43.63529 | 27.34831 | 37934 ft | 421 kts | 322° |
| 2026-04-23 15:55 | 43.67984 | 27.29616 | 37928 ft | 422 kts | 322° |
| 2026-04-23 15:55 | 43.72469 | 27.24401 | 37924 ft | 419 kts | 323° |
| 2026-04-23 15:56 | 43.76934 | 27.19229 | 37936 ft | 419 kts | 323° |
| 2026-04-23 15:56 | 43.81386 | 27.14062 | 37929 ft | 418 kts | 323° |
| 2026-04-23 15:57 | 43.85827 | 27.08892 | 37925 ft | 418 kts | 323° |
| 2026-04-23 15:57 | 43.90257 | 27.03725 | 37940 ft | 419 kts | 323° |
| 2026-04-23 15:58 | 43.94692 | 26.98538 | 37928 ft | 416 kts | 323° |
| 2026-04-23 15:58 | 43.99109 | 26.93367 | 37923 ft | 418 kts | 323° |
| 2026-04-23 15:59 | 44.03474 | 26.88243 | 37930 ft | 417 kts | 323° |
| 2026-04-23 15:59 | 44.07892 | 26.83043 | 37922 ft | 417 kts | 323° |
| 2026-04-23 16:00 | 44.12380 | 26.77984 | 37920 ft | 416 kts | 325° |
| 2026-04-23 16:00 | 44.16957 | 26.73069 | 37918 ft | 414 kts | 326° |
| 2026-04-23 16:01 | 44.21505 | 26.68190 | 37903 ft | 415 kts | 326° |
| 2026-04-23 16:01 | 44.26052 | 26.63273 | 37903 ft | 416 kts | 326° |
| 2026-04-23 16:02 | 44.30603 | 26.58317 | 37895 ft | 416 kts | 326° |
| 2026-04-23 16:02 | 44.35166 | 26.53333 | 37898 ft | 416 kts | 325° |
| 2026-04-23 16:03 | 44.39690 | 26.48375 | 37893 ft | 415 kts | 325° |
| 2026-04-23 16:03 | 44.44219 | 26.43401 | 37885 ft | 415 kts | 325° |
| 2026-04-23 16:04 | 44.48748 | 26.38418 | 37892 ft | 416 kts | 325° |
| 2026-04-23 16:04 | 44.53275 | 26.33426 | 37879 ft | 415 kts | 324° |
| 2026-04-23 16:05 | 44.57058 | 26.29246 | 37888 ft | 416 kts | 324° |
| 2026-04-23 16:05 | 44.62322 | 26.23420 | 37885 ft | 416 kts | 324° |
| 2026-04-23 16:06 | 44.66878 | 26.18366 | 37883 ft | 416 kts | 324° |
| 2026-04-23 16:06 | 44.71382 | 26.13360 | 37884 ft | 416 kts | 324° |
| 2026-04-23 16:07 | 44.75910 | 26.08317 | 37882 ft | 415 kts | 324° |
| 2026-04-23 16:07 | 44.80410 | 26.03295 | 37887 ft | 415 kts | 324° |
| 2026-04-23 16:08 | 44.84931 | 25.98241 | 37884 ft | 417 kts | 324° |
| 2026-04-23 16:08 | 44.89464 | 25.93160 | 37892 ft | 417 kts | 324° |
| 2026-04-23 16:09 | 44.94006 | 25.88055 | 37885 ft | 416 kts | 324° |
| 2026-04-23 16:09 | 44.98512 | 25.82984 | 37890 ft | 416 kts | 324° |
| 2026-04-23 16:10 | 45.02997 | 25.77929 | 37893 ft | 415 kts | 324° |
| 2026-04-23 16:10 | 45.07497 | 25.72848 | 37900 ft | 414 kts | 325° |
| 2026-04-23 16:11 | 45.11959 | 25.67796 | 37898 ft | 415 kts | 324° |
| 2026-04-23 16:11 | 45.16469 | 25.62678 | 37896 ft | 414 kts | 324° |
| 2026-04-23 16:12 | 45.20927 | 25.57603 | 37898 ft | 413 kts | 324° |
| 2026-04-23 16:12 | 45.25425 | 25.52479 | 37894 ft | 415 kts | 324° |
| 2026-04-23 16:13 | 45.29900 | 25.47370 | 37890 ft | 414 kts | 324° |
| 2026-04-23 16:13 | 45.36575 | 25.39729 | 37894 ft | 413 kts | 324° |
| 2026-04-23 16:14 | 45.41050 | 25.34596 | 37899 ft | 413 kts | 324° |
| 2026-04-23 16:14 | 45.45474 | 25.29507 | 37895 ft | 412 kts | 324° |
| 2026-04-23 16:15 | 45.49924 | 25.24376 | 37894 ft | 411 kts | 324° |
| 2026-04-23 16:15 | 45.54362 | 25.19249 | 37897 ft | 413 kts | 324° |
| 2026-04-23 16:16 | 45.58823 | 25.14086 | 37893 ft | 412 kts | 324° |
| 2026-04-23 16:16 | 45.63242 | 25.08958 | 37901 ft | 411 kts | 324° |
| 2026-04-23 16:17 | 45.67673 | 25.03809 | 37911 ft | 411 kts | 324° |
| 2026-04-23 16:17 | 45.72094 | 24.98659 | 37919 ft | 410 kts | 324° |
| 2026-04-23 16:18 | 45.76524 | 24.93490 | 37928 ft | 412 kts | 324° |
| 2026-04-23 16:18 | 45.80946 | 24.88318 | 37932 ft | 412 kts | 324° |
| 2026-04-23 16:19 | 45.85383 | 24.83122 | 37932 ft | 413 kts | 324° |
| 2026-04-23 16:19 | 45.89789 | 24.77947 | 37928 ft | 411 kts | 324° |
| 2026-04-23 16:20 | 45.94218 | 24.72733 | 37924 ft | 410 kts | 324° |
| 2026-04-23 16:20 | 45.98617 | 24.67542 | 37931 ft | 410 kts | 324° |
| 2026-04-23 16:21 | 46.03007 | 24.62351 | 37927 ft | 410 kts | 324° |
| 2026-04-23 16:21 | 46.07398 | 24.57150 | 37939 ft | 410 kts | 324° |
| 2026-04-23 16:22 | 46.11798 | 24.51928 | 37933 ft | 411 kts | 324° |
| 2026-04-23 16:22 | 46.16219 | 24.46670 | 37918 ft | 409 kts | 324° |
| 2026-04-23 16:23 | 46.20589 | 24.41460 | 37918 ft | 410 kts | 324° |
| 2026-04-23 16:23 | 46.24972 | 24.36224 | 37921 ft | 410 kts | 324° |
| 2026-04-23 16:24 | 46.29361 | 24.30966 | 37918 ft | 409 kts | 323° |
| 2026-04-23 16:24 | 46.33730 | 24.25722 | 37917 ft | 409 kts | 324° |
| 2026-04-23 16:25 | 46.38086 | 24.20484 | 37919 ft | 410 kts | 324° |
| 2026-04-23 16:25 | 46.42472 | 24.15200 | 37917 ft | 408 kts | 323° |
| 2026-04-23 16:26 | 46.46786 | 24.09990 | 37916 ft | 407 kts | 324° |
| 2026-04-23 16:26 | 46.51127 | 24.04739 | 37917 ft | 407 kts | 324° |
| 2026-04-23 16:27 | 46.55483 | 23.99455 | 37926 ft | 407 kts | 324° |
| 2026-04-23 16:27 | 46.59796 | 23.94212 | 37930 ft | 407 kts | 324° |
| 2026-04-23 16:28 | 46.64124 | 23.88939 | 37920 ft | 405 kts | 324° |
| 2026-04-23 16:28 | 46.68435 | 23.83677 | 37930 ft | 407 kts | 324° |
| 2026-04-23 16:29 | 46.72756 | 23.78393 | 37932 ft | 406 kts | 324° |
| 2026-04-23 16:29 | 46.77061 | 23.73116 | 37930 ft | 404 kts | 324° |
| 2026-04-23 16:30 | 46.81363 | 23.67835 | 37928 ft | 405 kts | 324° |
| 2026-04-23 16:30 | 46.85650 | 23.62556 | 37939 ft | 404 kts | 324° |
| 2026-04-23 16:31 | 46.89932 | 23.57268 | 37928 ft | 402 kts | 324° |
| 2026-04-23 16:31 | 46.94216 | 23.51971 | 37924 ft | 404 kts | 324° |
| 2026-04-23 16:32 | 46.98484 | 23.46684 | 37932 ft | 404 kts | 324° |
| 2026-04-23 16:32 | 47.02743 | 23.41394 | 37928 ft | 402 kts | 324° |
| 2026-04-23 16:33 | 47.07016 | 23.36078 | 37933 ft | 403 kts | 324° |
| 2026-04-23 16:33 | 47.11311 | 23.30720 | 37936 ft | 404 kts | 323° |
| 2026-04-23 16:34 | 47.15579 | 23.25388 | 37937 ft | 404 kts | 323° |
| 2026-04-23 16:34 | 47.19855 | 23.20031 | 37938 ft | 403 kts | 323° |
| 2026-04-23 16:35 | 47.24113 | 23.14688 | 37940 ft | 407 kts | 323° |
| 2026-04-23 16:35 | 47.28450 | 23.09237 | 37939 ft | 414 kts | 323° |
| 2026-04-23 16:36 | 47.32829 | 23.03719 | 37943 ft | 419 kts | 323° |
| 2026-04-23 16:36 | 47.37246 | 22.98136 | 37936 ft | 418 kts | 323° |
| 2026-04-23 16:37 | 47.41636 | 22.92570 | 37940 ft | 416 kts | 323° |
| 2026-04-23 16:37 | 47.46034 | 22.86983 | 37937 ft | 418 kts | 323° |
| 2026-04-23 16:38 | 47.50430 | 22.81387 | 37942 ft | 418 kts | 323° |
| 2026-04-23 16:38 | 47.54834 | 22.75771 | 37940 ft | 418 kts | 323° |
| 2026-04-23 16:39 | 47.59222 | 22.70159 | 37935 ft | 418 kts | 323° |
| 2026-04-23 16:39 | 47.63617 | 22.64525 | 37941 ft | 417 kts | 324° |
| 2026-04-23 16:40 | 47.68012 | 22.58881 | 37938 ft | 419 kts | 324° |
| 2026-04-23 16:40 | 47.72380 | 22.53257 | 37932 ft | 417 kts | 323° |
| 2026-04-23 16:41 | 47.76769 | 22.47598 | 37934 ft | 418 kts | 324° |
| 2026-04-23 16:41 | 47.81370 | 22.42461 | 37943 ft | 414 kts | 330° |
| 2026-04-23 16:42 | 47.86203 | 22.37962 | 37944 ft | 412 kts | 333° |
| 2026-04-23 16:42 | 47.91134 | 22.33571 | 37941 ft | 413 kts | 333° |
| 2026-04-23 16:43 | 47.96066 | 22.29177 | 37943 ft | 414 kts | 333° |
| 2026-04-23 16:43 | 48.00992 | 22.24755 | 37944 ft | 413 kts | 333° |
| 2026-04-23 16:44 | 48.05897 | 22.20324 | 37948 ft | 412 kts | 332° |
| 2026-04-23 16:44 | 48.10795 | 22.15882 | 37937 ft | 412 kts | 332° |
| 2026-04-23 16:45 | 48.15709 | 22.11418 | 37940 ft | 411 kts | 333° |
| 2026-04-23 16:45 | 48.20611 | 22.06957 | 37945 ft | 413 kts | 332° |
| 2026-04-23 16:46 | 48.25502 | 22.02489 | 37950 ft | 412 kts | 332° |
| 2026-04-23 16:46 | 48.30376 | 21.98025 | 37946 ft | 412 kts | 332° |
| 2026-04-23 16:47 | 48.35265 | 21.93538 | 37950 ft | 412 kts | 333° |
| 2026-04-23 16:47 | 48.40172 | 21.89024 | 37949 ft | 411 kts | 333° |
| 2026-04-23 16:48 | 48.45058 | 21.84520 | 37949 ft | 412 kts | 333° |
| 2026-04-23 16:48 | 48.49905 | 21.80040 | 37954 ft | 412 kts | 333° |
| 2026-04-23 16:49 | 48.54781 | 21.75520 | 37953 ft | 411 kts | 333° |
| 2026-04-23 16:49 | 48.59636 | 21.71013 | 37951 ft | 411 kts | 333° |
| 2026-04-23 16:50 | 48.64508 | 21.66480 | 37951 ft | 412 kts | 333° |
| 2026-04-23 16:50 | 48.69364 | 21.61952 | 37956 ft | 411 kts | 333° |
| 2026-04-23 16:51 | 48.74225 | 21.57406 | 37957 ft | 411 kts | 333° |
| 2026-04-23 16:51 | 48.79071 | 21.52867 | 37958 ft | 409 kts | 333° |
| 2026-04-23 16:52 | 48.83896 | 21.48333 | 37956 ft | 410 kts | 334° |
| 2026-04-23 16:52 | 48.88771 | 21.43747 | 37957 ft | 411 kts | 333° |
| 2026-04-23 16:53 | 48.93568 | 21.39221 | 37965 ft | 409 kts | 333° |
| 2026-04-23 16:53 | 48.98408 | 21.34644 | 37960 ft | 410 kts | 333° |
| 2026-04-23 16:54 | 49.03241 | 21.30065 | 37960 ft | 411 kts | 333° |
| 2026-04-23 16:54 | 49.08071 | 21.25474 | 37962 ft | 409 kts | 333° |
| 2026-04-23 16:55 | 49.12927 | 21.20850 | 37971 ft | 409 kts | 333° |
| 2026-04-23 16:55 | 49.17733 | 21.16266 | 37971 ft | 410 kts | 333° |
| 2026-04-23 16:56 | 49.22551 | 21.11658 | 37971 ft | 410 kts | 333° |
| 2026-04-23 16:56 | 49.27362 | 21.07043 | 37973 ft | 408 kts | 333° |
| 2026-04-23 16:57 | 49.32195 | 21.02511 | 37973 ft | 407 kts | 336° |
| 2026-04-23 16:57 | 49.37259 | 20.98895 | 37976 ft | 403 kts | 342° |
| 2026-04-23 16:58 | 49.42490 | 20.95855 | 37975 ft | 401 kts | 344° |
| 2026-04-23 16:58 | 49.47722 | 20.92939 | 37978 ft | 399 kts | 345° |
| 2026-04-23 16:59 | 49.52938 | 20.90015 | 37981 ft | 401 kts | 344° |
| 2026-04-23 16:59 | 49.58170 | 20.87047 | 37986 ft | 400 kts | 344° |
| 2026-04-23 17:00 | 49.63369 | 20.84078 | 37989 ft | 401 kts | 344° |
| 2026-04-23 17:00 | 49.68562 | 20.81100 | 37991 ft | 399 kts | 344° |
| 2026-04-23 17:01 | 49.73765 | 20.78107 | 37988 ft | 400 kts | 344° |
| 2026-04-23 17:01 | 49.78980 | 20.75103 | 37999 ft | 400 kts | 344° |
| 2026-04-23 17:02 | 49.84145 | 20.72119 | 37990 ft | 398 kts | 344° |
| 2026-04-23 17:02 | 49.89341 | 20.69111 | 37999 ft | 397 kts | 344° |
| 2026-04-23 17:03 | 49.94517 | 20.66110 | 38000 ft | 399 kts | 344° |
| 2026-04-23 17:03 | 49.99706 | 20.63093 | 38002 ft | 400 kts | 344° |
| 2026-04-23 17:04 | 50.04885 | 20.60071 | 37997 ft | 399 kts | 344° |
| 2026-04-23 17:04 | 50.10167 | 20.57672 | 38000 ft | 392 kts | 355° |
| 2026-04-23 17:05 | 50.15547 | 20.57329 | 37999 ft | 390 kts | 4° |
| 2026-04-23 17:05 | 50.20926 | 20.57861 | 37889 ft | 388 kts | 6° |
| 2026-04-23 17:06 | 50.23657 | 20.58190 | 36798 ft | 396 kts | 6° |
| 2026-04-23 17:06 | 50.26363 | 20.58514 | 35971 ft | 396 kts | 6° |
| 2026-04-23 17:06 | 50.29077 | 20.58826 | 35240 ft | 384 kts | 6° |
| 2026-04-23 17:06 | 50.31672 | 20.59112 | 34806 ft | 368 kts | 6° |
| 2026-04-23 17:07 | 50.34176 | 20.59381 | 34336 ft | 354 kts | 6° |
| 2026-04-23 17:07 | 50.36578 | 20.59635 | 33890 ft | 340 kts | 6° |
| 2026-04-23 17:07 | 50.38903 | 20.59879 | 33475 ft | 331 kts | 6° |
| 2026-04-23 17:07 | 50.41220 | 20.60126 | 33097 ft | 340 kts | 6° |
| 2026-04-23 17:08 | 50.43600 | 20.60383 | 32615 ft | 346 kts | 6° |
| 2026-04-23 17:08 | 50.45987 | 20.60636 | 32190 ft | 341 kts | 6° |
| 2026-04-23 17:08 | 50.48303 | 20.60880 | 31775 ft | 336 kts | 6° |
| 2026-04-23 17:08 | 50.50613 | 20.61121 | 31356 ft | 331 kts | 5° |
| 2026-04-23 17:09 | 50.52915 | 20.61359 | 30988 ft | 327 kts | 6° |
| 2026-04-23 17:09 | 50.55194 | 20.61599 | 30752 ft | 339 kts | 5° |
| 2026-04-23 17:09 | 50.57612 | 20.61857 | 30500 ft | 354 kts | 5° |
| 2026-04-23 17:09 | 50.60106 | 20.62121 | 30238 ft | 366 kts | 5° |
| 2026-04-23 17:10 | 50.62639 | 20.62387 | 29966 ft | 366 kts | 5° |
| 2026-04-23 17:10 | 50.65167 | 20.62651 | 29693 ft | 362 kts | 5° |
| 2026-04-23 17:10 | 50.67670 | 20.62911 | 29428 ft | 360 kts | 5° |
| 2026-04-23 17:10 | 50.70178 | 20.63173 | 29148 ft | 360 kts | 5° |
| 2026-04-23 17:11 | 50.72657 | 20.63432 | 28750 ft | 356 kts | 5° |
| 2026-04-23 17:11 | 50.75108 | 20.63688 | 28271 ft | 351 kts | 5° |
| 2026-04-23 17:11 | 50.77523 | 20.63942 | 27780 ft | 346 kts | 4° |
| 2026-04-23 17:11 | 50.79932 | 20.64195 | 27295 ft | 346 kts | 5° |
| 2026-04-23 17:12 | 50.82357 | 20.64452 | 26805 ft | 351 kts | 4° |
| 2026-04-23 17:12 | 50.84779 | 20.64709 | 26302 ft | 350 kts | 4° |
| 2026-04-23 17:12 | 50.87190 | 20.64966 | 25807 ft | 345 kts | 4° |
| 2026-04-23 17:12 | 50.89575 | 20.65220 | 25313 ft | 340 kts | 4° |
| 2026-04-23 17:13 | 50.91914 | 20.65468 | 24829 ft | 336 kts | 4° |
| 2026-04-23 17:13 | 50.94239 | 20.65712 | 24344 ft | 332 kts | 4° |
| 2026-04-23 17:13 | 50.96541 | 20.65955 | 23877 ft | 336 kts | 4° |
| 2026-04-23 17:13 | 50.98902 | 20.66207 | 23385 ft | 338 kts | 4° |
| 2026-04-23 17:14 | 51.01212 | 20.66454 | 22895 ft | 334 kts | 4° |
| 2026-04-23 17:14 | 51.03509 | 20.66701 | 22411 ft | 330 kts | 4° |
| 2026-04-23 17:14 | 51.05799 | 20.66945 | 21930 ft | 326 kts | 4° |
| 2026-04-23 17:14 | 51.08058 | 20.67186 | 21456 ft | 323 kts | 3° |
| 2026-04-23 17:15 | 51.10302 | 20.67424 | 20992 ft | 325 kts | 3° |
| 2026-04-23 17:15 | 51.12582 | 20.67666 | 20504 ft | 329 kts | 3° |
| 2026-04-23 17:15 | 51.14830 | 20.67907 | 20019 ft | 326 kts | 3° |
| 2026-04-23 17:15 | 51.17086 | 20.68152 | 19539 ft | 323 kts | 2° |
| 2026-04-23 17:16 | 51.19297 | 20.68389 | 19064 ft | 320 kts | 3° |
| 2026-04-23 17:16 | 51.21499 | 20.68624 | 18597 ft | 316 kts | 3° |
| 2026-04-23 17:16 | 51.23672 | 20.68858 | 18128 ft | 313 kts | 2° |
| 2026-04-23 17:16 | 51.25840 | 20.69098 | 17666 ft | 310 kts | 3° |
| 2026-04-23 17:17 | 51.27983 | 20.69531 | 17176 ft | 310 kts | 9° |
| 2026-04-23 17:17 | 51.30074 | 20.70381 | 16715 ft | 316 kts | 15° |
| 2026-04-23 17:17 | 51.32159 | 20.71579 | 16237 ft | 315 kts | 18° |
| 2026-04-23 17:17 | 51.34159 | 20.72879 | 15779 ft | 313 kts | 19° |
| 2026-04-23 17:18 | 51.38136 | 20.75524 | 14848 ft | 307 kts | 19° |
| 2026-04-23 17:18 | 51.40098 | 20.76803 | 14388 ft | 304 kts | 19° |
| 2026-04-23 17:18 | 51.42049 | 20.78063 | 13940 ft | 301 kts | 19° |
| 2026-04-23 17:19 | 51.43967 | 20.79294 | 13488 ft | 298 kts | 18° |
| 2026-04-23 17:19 | 51.45884 | 20.80522 | 13036 ft | 296 kts | 18° |
| 2026-04-23 17:19 | 51.47786 | 20.81744 | 12578 ft | 293 kts | 18° |
| 2026-04-23 17:19 | 51.49680 | 20.82960 | 12153 ft | 298 kts | 18° |
| 2026-04-23 17:20 | 51.51612 | 20.84198 | 11691 ft | 299 kts | 19° |
| 2026-04-23 17:20 | 51.55433 | 20.86660 | 10791 ft | 293 kts | 18° |
| 2026-04-23 17:21 | 51.59096 | 20.89034 | 10335 ft | 274 kts | 18° |
| 2026-04-23 17:21 | 51.60834 | 20.90163 | 10244 ft | 261 kts | 18° |
| 2026-04-23 17:21 | 51.64197 | 20.92328 | 10068 ft | 277 kts | 18° |
| 2026-04-23 17:22 | 51.66015 | 20.93496 | 9928 ft | 276 kts | 18° |
| 2026-04-23 17:22 | 51.69520 | 20.95781 | 9149 ft | 271 kts | 18° |
| 2026-04-23 17:23 | 51.72968 | 20.98026 | 8417 ft | 265 kts | 18° |
| 2026-04-23 17:23 | 51.74670 | 20.99133 | 8056 ft | 262 kts | 18° |
| 2026-04-23 17:23 | 51.78031 | 21.01320 | 7355 ft | 256 kts | 18° |
| 2026-04-23 17:24 | 51.79659 | 21.02379 | 7001 ft | 254 kts | 18° |
| 2026-04-23 17:24 | 51.81301 | 21.03449 | 6643 ft | 252 kts | 18° |
| 2026-04-23 17:24 | 51.84556 | 21.05572 | 6025 ft | 254 kts | 18° |
| 2026-04-23 17:25 | 51.87745 | 21.07669 | 5557 ft | 241 kts | 18° |
| 2026-04-23 17:25 | 51.89290 | 21.08683 | 5321 ft | 235 kts | 18° |
| 2026-04-23 17:26 | 51.92284 | 21.10642 | 4766 ft | 227 kts | 18° |
| 2026-04-23 17:26 | 51.95170 | 21.12537 | 4240 ft | 220 kts | 18° |
| 2026-04-23 17:27 | 51.97981 | 21.12816 | 3817 ft | 203 kts | 336° |
| 2026-04-23 17:27 | 51.99208 | 21.11764 | 3661 ft | 196 kts | 333° |
| 2026-04-23 17:27 | 52.00393 | 21.10717 | 3465 ft | 190 kts | 334° |
| 2026-04-23 17:27 | 52.01543 | 21.09730 | 3287 ft | 183 kts | 335° |
| 2026-04-23 17:28 | 52.02652 | 21.08777 | 3141 ft | 176 kts | 334° |
| 2026-04-23 17:28 | 52.03714 | 21.07857 | 2997 ft | 171 kts | 335° |
| 2026-04-23 17:28 | 52.04754 | 21.06958 | 2765 ft | 169 kts | 335° |
| 2026-04-23 17:28 | 52.05779 | 21.06073 | 2563 ft | 166 kts | 334° |
| 2026-04-23 17:29 | 52.06804 | 21.05186 | 2296 ft | 161 kts | 334° |
| 2026-04-23 17:29 | 52.07746 | 21.04367 | 2112 ft | 144 kts | 334° |
| 2026-04-23 17:29 | 52.09458 | 21.02888 | 1726 ft | 136 kts | 334° |
| 2026-04-23 17:30 | 52.10245 | 21.02204 | 1543 ft | 126 kts | 334° |
| 2026-04-23 17:30 | 52.11767 | 21.00887 | 1206 ft | 123 kts | 333° |
| 2026-04-23 17:30 | 52.12518 | 21.00235 | 1026 ft | 123 kts | 332° |
| 2026-04-23 17:31 | 52.13277 | 20.99580 | 872 ft | 124 kts | 332° |
| 2026-04-23 17:31 | 52.14035 | 20.98910 | 685 ft | 125 kts | 332° |
| 2026-04-23 17:31 | 52.14795 | 20.98259 | 533 ft | 124 kts | 332° |
| 2026-04-23 17:31 | 52.15577 | 20.97584 | 367 ft | 127 kts | 331° |
| 2026-04-23 17:32 | 52.16261 | 20.96986 | 336 ft | 84 kts | 332° |
| 2026-04-23 17:32 | 52.16633 | 20.96662 | 330 ft | 53 kts | 332° |
| 2026-04-23 17:32 | 52.16914 | 20.96516 | 331 ft | 36 kts | 358° |
| 2026-04-23 17:32 | 52.17064 | 20.96526 | 333 ft | 9 kts | 24° |
| 2026-04-23 17:33 | 52.17079 | 20.96547 | 332 ft | 0 kts | 53° |
| 2026-04-23 17:33 | 52.17083 | 20.96555 | 332 ft | 4 kts | 53° |
| 2026-04-23 17:33 | 52.17137 | 20.96608 | 332 ft | 10 kts | 354° |
| 2026-04-23 17:34 | 52.17205 | 20.96560 | 333 ft | 11 kts | 332° |
| 2026-04-23 17:34 | 52.17278 | 20.96496 | 333 ft | 12 kts | 331° |
| 2026-04-23 17:34 | 52.17439 | 20.96355 | 334 ft | 14 kts | 331° |
| 2026-04-23 17:35 | 52.17530 | 20.96275 | 334 ft | 15 kts | 332° |
| 2026-04-23 17:35 | 52.17719 | 20.96111 | 337 ft | 15 kts | 332° |
| 2026-04-23 17:35 | 52.17813 | 20.96028 | 339 ft | 15 kts | 331° |
| 2026-04-23 17:36 | 52.17903 | 20.95950 | 342 ft | 12 kts | 331° |
| 2026-04-23 17:36 | 52.17965 | 20.95938 | 343 ft | 9 kts | 46° |
| 2026-04-23 17:36 | 52.17994 | 20.96030 | 342 ft | 7 kts | 72° |
| 2026-04-23 17:36 | 52.17976 | 20.96070 | 341 ft | 4 kts | 162° |
| 2026-04-23 17:37 | 52.17956 | 20.96080 | 340 ft | 0 kts | 163° |